sensor_id;sensor_type;location;lat;lon;timestamp;P1;durP1;ratioP1;P2;durP2;ratioP2
71176;SDS011;58877;51.992;4.504;2023-02-12T00:01:08;8.24;;;8.24;;
71176;SDS011;58877;51.992;4.504;2023-02-12T00:03:36;8.40;;;8.37;;
71176;SDS011;58877;51.992;4.504;2023-02-12T00:06:03;8.06;;;8.03;;
71176;SDS011;58877;51.992;4.504;2023-02-12T00:08:29;8.09;;;7.98;;
71176;SDS011;58877;51.992;4.504;2023-02-12T00:10:55;8.15;;;8.15;;
71176;SDS011;58877;51.992;4.504;2023-02-12T00:13:21;8.68;;;8.63;;
71176;SDS011;58877;51.992;4.504;2023-02-12T00:15:46;7.85;;;7.85;;
71176;SDS011;58877;51.992;4.504;2023-02-12T00:18:12;7.64;;;7.61;;
71176;SDS011;58877;51.992;4.504;2023-02-12T00:20:38;8.31;;;8.31;;
71176;SDS011;58877;51.992;4.504;2023-02-12T00:23:04;7.95;;;7.95;;
71176;SDS011;58877;51.992;4.504;2023-02-12T00:25:30;8.29;;;8.28;;
71176;SDS011;58877;51.992;4.504;2023-02-12T00:28:02;8.09;;;8.09;;
71176;SDS011;58877;51.992;4.504;2023-02-12T00:30:30;7.74;;;7.74;;
71176;SDS011;58877;51.992;4.504;2023-02-12T00:32:58;8.21;;;8.17;;
71176;SDS011;58877;51.992;4.504;2023-02-12T00:35:31;7.85;;;7.83;;
71176;SDS011;58877;51.992;4.504;2023-02-12T00:37:57;7.97;;;7.96;;
71176;SDS011;58877;51.992;4.504;2023-02-12T00:40:25;7.59;;;7.58;;
71176;SDS011;58877;51.992;4.504;2023-02-12T00:42:53;7.53;;;7.51;;
71176;SDS011;58877;51.992;4.504;2023-02-12T00:45:22;8.05;;;8.04;;
71176;SDS011;58877;51.992;4.504;2023-02-12T00:47:48;7.70;;;7.68;;
71176;SDS011;58877;51.992;4.504;2023-02-12T00:50:22;7.57;;;7.54;;
71176;SDS011;58877;51.992;4.504;2023-02-12T00:52:50;8.36;;;8.31;;
71176;SDS011;58877;51.992;4.504;2023-02-12T00:55:16;7.65;;;7.63;;
71176;SDS011;58877;51.992;4.504;2023-02-12T00:57:44;8.06;;;8.03;;
71176;SDS011;58877;51.992;4.504;2023-02-12T01:00:19;7.83;;;7.83;;
71176;SDS011;58877;51.992;4.504;2023-02-12T01:03:05;6.72;;;6.72;;
71176;SDS011;58877;51.992;4.504;2023-02-12T01:05:30;6.61;;;6.61;;
71176;SDS011;58877;51.992;4.504;2023-02-12T01:07:59;6.33;;;6.33;;
71176;SDS011;58877;51.992;4.504;2023-02-12T01:10:28;6.90;;;6.90;;
71176;SDS011;58877;51.992;4.504;2023-02-12T01:12:54;7.35;;;7.35;;
71176;SDS011;58877;51.992;4.504;2023-02-12T01:15:20;6.96;;;6.92;;
71176;SDS011;58877;51.992;4.504;2023-02-12T01:17:46;7.06;;;6.99;;
71176;SDS011;58877;51.992;4.504;2023-02-12T01:20:15;7.22;;;7.21;;
71176;SDS011;58877;51.992;4.504;2023-02-12T01:22:47;7.42;;;7.41;;
71176;SDS011;58877;51.992;4.504;2023-02-12T01:25:15;7.67;;;7.65;;
71176;SDS011;58877;51.992;4.504;2023-02-12T01:27:42;7.97;;;7.92;;
71176;SDS011;58877;51.992;4.504;2023-02-12T01:30:11;7.32;;;7.28;;
71176;SDS011;58877;51.992;4.504;2023-02-12T01:32:47;7.76;;;7.74;;
71176;SDS011;58877;51.992;4.504;2023-02-12T01:35:15;7.53;;;7.53;;
71176;SDS011;58877;51.992;4.504;2023-02-12T01:37:41;7.61;;;7.56;;
71176;SDS011;58877;51.992;4.504;2023-02-12T01:40:07;7.40;;;7.37;;
71176;SDS011;58877;51.992;4.504;2023-02-12T01:42:37;7.29;;;7.27;;
71176;SDS011;58877;51.992;4.504;2023-02-12T01:47:44;7.02;;;7.02;;
71176;SDS011;58877;51.992;4.504;2023-02-12T01:50:16;6.66;;;6.66;;
71176;SDS011;58877;51.992;4.504;2023-02-12T01:52:49;6.43;;;6.43;;
71176;SDS011;58877;51.992;4.504;2023-02-12T01:55:30;6.65;;;6.65;;
71176;SDS011;58877;51.992;4.504;2023-02-12T01:58:12;6.66;;;6.61;;
71176;SDS011;58877;51.992;4.504;2023-02-12T02:00:39;6.36;;;6.35;;
71176;SDS011;58877;51.992;4.504;2023-02-12T02:03:12;6.61;;;6.61;;
71176;SDS011;58877;51.992;4.504;2023-02-12T02:05:53;6.09;;;6.09;;
71176;SDS011;58877;51.992;4.504;2023-02-12T02:08:30;6.59;;;6.53;;
71176;SDS011;58877;51.992;4.504;2023-02-12T02:11:04;6.38;;;6.36;;
71176;SDS011;58877;51.992;4.504;2023-02-12T02:13:50;6.51;;;6.51;;
71176;SDS011;58877;51.992;4.504;2023-02-12T02:16:35;6.45;;;6.43;;
71176;SDS011;58877;51.992;4.504;2023-02-12T02:25:14;5.84;;;5.83;;
71176;SDS011;58877;51.992;4.504;2023-02-12T02:42:22;5.80;;;5.77;;
71176;SDS011;58877;51.992;4.504;2023-02-12T02:44:54;6.07;;;6.07;;
71176;SDS011;58877;51.992;4.504;2023-02-12T02:47:46;6.38;;;6.38;;
71176;SDS011;58877;51.992;4.504;2023-02-12T02:50:21;6.12;;;6.12;;
71176;SDS011;58877;51.992;4.504;2023-02-12T02:52:52;5.85;;;5.83;;
71176;SDS011;58877;51.992;4.504;2023-02-12T02:55:26;5.60;;;5.59;;
71176;SDS011;58877;51.992;4.504;2023-02-12T02:58:17;5.40;;;5.39;;
71176;SDS011;58877;51.992;4.504;2023-02-12T03:03:55;5.56;;;5.56;;
71176;SDS011;58877;51.992;4.504;2023-02-12T03:06:39;5.51;;;5.51;;
71176;SDS011;58877;51.992;4.504;2023-02-12T03:09:13;5.61;;;5.61;;
71176;SDS011;58877;51.992;4.504;2023-02-12T03:11:51;5.99;;;5.99;;
71176;SDS011;58877;51.992;4.504;2023-02-12T03:14:24;5.43;;;5.43;;
71176;SDS011;58877;51.992;4.504;2023-02-12T03:17:08;5.87;;;5.87;;
71176;SDS011;58877;51.992;4.504;2023-02-12T03:19:42;5.39;;;5.37;;
71176;SDS011;58877;51.992;4.504;2023-02-12T03:22:22;5.44;;;5.42;;
71176;SDS011;58877;51.992;4.504;2023-02-12T03:25:13;5.71;;;5.71;;
71176;SDS011;58877;51.992;4.504;2023-02-12T03:27:51;5.19;;;5.19;;
71176;SDS011;58877;51.992;4.504;2023-02-12T03:30:43;4.76;;;4.76;;
71176;SDS011;58877;51.992;4.504;2023-02-12T03:33:15;5.00;;;5.00;;
71176;SDS011;58877;51.992;4.504;2023-02-12T03:38:42;5.41;;;5.41;;
71176;SDS011;58877;51.992;4.504;2023-02-12T03:41:14;5.13;;;5.13;;
71176;SDS011;58877;51.992;4.504;2023-02-12T03:47:18;5.01;;;5.01;;
71176;SDS011;58877;51.992;4.504;2023-02-12T03:49:52;5.22;;;5.22;;
71176;SDS011;58877;51.992;4.504;2023-02-12T03:52:21;4.59;;;4.58;;
71176;SDS011;58877;51.992;4.504;2023-02-12T03:54:47;4.88;;;4.88;;
71176;SDS011;58877;51.992;4.504;2023-02-12T03:57:14;5.12;;;5.12;;
71176;SDS011;58877;51.992;4.504;2023-02-12T03:59:46;5.52;;;5.52;;
71176;SDS011;58877;51.992;4.504;2023-02-12T04:02:14;5.27;;;5.27;;
71176;SDS011;58877;51.992;4.504;2023-02-12T04:04:41;5.44;;;5.44;;
71176;SDS011;58877;51.992;4.504;2023-02-12T04:07:09;5.17;;;5.17;;
71176;SDS011;58877;51.992;4.504;2023-02-12T04:09:35;5.69;;;5.69;;
71176;SDS011;58877;51.992;4.504;2023-02-12T04:12:05;5.78;;;5.78;;
71176;SDS011;58877;51.992;4.504;2023-02-12T04:14:40;5.38;;;5.38;;
71176;SDS011;58877;51.992;4.504;2023-02-12T04:17:31;5.14;;;5.14;;
71176;SDS011;58877;51.992;4.504;2023-02-12T04:20:15;5.60;;;5.60;;
71176;SDS011;58877;51.992;4.504;2023-02-12T04:25:40;5.59;;;5.57;;
71176;SDS011;58877;51.992;4.504;2023-02-12T04:28:31;5.50;;;5.50;;
71176;SDS011;58877;51.992;4.504;2023-02-12T04:31:11;5.82;;;5.82;;
71176;SDS011;58877;51.992;4.504;2023-02-12T04:39:23;5.40;;;5.40;;
71176;SDS011;58877;51.992;4.504;2023-02-12T04:41:52;5.52;;;5.52;;
71176;SDS011;58877;51.992;4.504;2023-02-12T04:44:23;5.77;;;5.77;;
71176;SDS011;58877;51.992;4.504;2023-02-12T04:46:50;5.85;;;5.85;;
71176;SDS011;58877;51.992;4.504;2023-02-12T04:49:18;5.97;;;5.96;;
71176;SDS011;58877;51.992;4.504;2023-02-12T04:51:45;5.61;;;5.59;;
71176;SDS011;58877;51.992;4.504;2023-02-12T04:54:12;5.76;;;5.76;;
71176;SDS011;58877;51.992;4.504;2023-02-12T04:56:39;5.52;;;5.52;;
71176;SDS011;58877;51.992;4.504;2023-02-12T04:59:05;5.96;;;5.96;;
71176;SDS011;58877;51.992;4.504;2023-02-12T05:01:35;5.89;;;5.89;;
71176;SDS011;58877;51.992;4.504;2023-02-12T05:04:02;5.65;;;5.65;;
71176;SDS011;58877;51.992;4.504;2023-02-12T05:06:29;5.79;;;5.79;;
71176;SDS011;58877;51.992;4.504;2023-02-12T05:08:55;5.86;;;5.86;;
71176;SDS011;58877;51.992;4.504;2023-02-12T05:11:21;6.05;;;6.05;;
71176;SDS011;58877;51.992;4.504;2023-02-12T05:13:51;5.63;;;5.63;;
71176;SDS011;58877;51.992;4.504;2023-02-12T05:16:18;5.67;;;5.67;;
71176;SDS011;58877;51.992;4.504;2023-02-12T05:18:45;5.57;;;5.57;;
71176;SDS011;58877;51.992;4.504;2023-02-12T05:21:11;6.02;;;6.02;;
71176;SDS011;58877;51.992;4.504;2023-02-12T05:23:37;6.34;;;6.34;;
71176;SDS011;58877;51.992;4.504;2023-02-12T05:26:05;5.91;;;5.91;;
71176;SDS011;58877;51.992;4.504;2023-02-12T05:28:37;6.36;;;6.36;;
71176;SDS011;58877;51.992;4.504;2023-02-12T05:31:03;6.26;;;6.26;;
71176;SDS011;58877;51.992;4.504;2023-02-12T05:33:31;6.56;;;6.56;;
71176;SDS011;58877;51.992;4.504;2023-02-12T05:36:10;6.39;;;6.39;;
71176;SDS011;58877;51.992;4.504;2023-02-12T05:38:38;6.86;;;6.86;;
71176;SDS011;58877;51.992;4.504;2023-02-12T05:41:12;6.95;;;6.95;;
71176;SDS011;58877;51.992;4.504;2023-02-12T05:43:39;6.86;;;6.86;;
71176;SDS011;58877;51.992;4.504;2023-02-12T05:46:05;7.42;;;7.42;;
71176;SDS011;58877;51.992;4.504;2023-02-12T05:48:32;6.80;;;6.80;;
71176;SDS011;58877;51.992;4.504;2023-02-12T05:51:06;7.31;;;7.31;;
71176;SDS011;58877;51.992;4.504;2023-02-12T05:53:44;7.12;;;7.12;;
71176;SDS011;58877;51.992;4.504;2023-02-12T05:58:40;6.83;;;6.83;;
71176;SDS011;58877;51.992;4.504;2023-02-12T06:01:09;7.22;;;7.22;;
71176;SDS011;58877;51.992;4.504;2023-02-12T06:03:40;7.68;;;7.68;;
71176;SDS011;58877;51.992;4.504;2023-02-12T06:06:06;8.68;;;8.68;;
71176;SDS011;58877;51.992;4.504;2023-02-12T06:08:31;9.45;;;9.45;;
71176;SDS011;58877;51.992;4.504;2023-02-12T06:11:04;10.30;;;10.30;;
71176;SDS011;58877;51.992;4.504;2023-02-12T06:13:32;11.38;;;11.38;;
71176;SDS011;58877;51.992;4.504;2023-02-12T06:15:58;11.52;;;11.52;;
71176;SDS011;58877;51.992;4.504;2023-02-12T06:18:25;11.67;;;11.67;;
71176;SDS011;58877;51.992;4.504;2023-02-12T06:20:51;11.75;;;11.75;;
71176;SDS011;58877;51.992;4.504;2023-02-12T06:23:19;11.89;;;11.88;;
71176;SDS011;58877;51.992;4.504;2023-02-12T06:25:46;11.50;;;11.50;;
71176;SDS011;58877;51.992;4.504;2023-02-12T06:28:12;12.06;;;11.97;;
71176;SDS011;58877;51.992;4.504;2023-02-12T06:30:37;12.59;;;12.59;;
71176;SDS011;58877;51.992;4.504;2023-02-12T06:33:03;12.54;;;12.54;;
71176;SDS011;58877;51.992;4.504;2023-02-12T06:35:28;13.07;;;13.07;;
71176;SDS011;58877;51.992;4.504;2023-02-12T06:37:54;13.17;;;13.17;;
71176;SDS011;58877;51.992;4.504;2023-02-12T06:40:19;13.07;;;13.07;;
71176;SDS011;58877;51.992;4.504;2023-02-12T06:42:45;12.54;;;12.54;;
71176;SDS011;58877;51.992;4.504;2023-02-12T06:45:10;12.78;;;12.78;;
71176;SDS011;58877;51.992;4.504;2023-02-12T06:47:36;11.95;;;11.95;;
71176;SDS011;58877;51.992;4.504;2023-02-12T06:50:02;11.99;;;11.99;;
71176;SDS011;58877;51.992;4.504;2023-02-12T06:52:27;11.93;;;11.89;;
71176;SDS011;58877;51.992;4.504;2023-02-12T06:54:54;11.90;;;11.90;;
71176;SDS011;58877;51.992;4.504;2023-02-12T06:57:19;11.52;;;11.52;;
71176;SDS011;58877;51.992;4.504;2023-02-12T06:59:45;11.01;;;11.01;;
71176;SDS011;58877;51.992;4.504;2023-02-12T07:02:10;11.00;;;11.00;;
71176;SDS011;58877;51.992;4.504;2023-02-12T07:04:36;10.73;;;10.72;;
71176;SDS011;58877;51.992;4.504;2023-02-12T07:07:03;10.60;;;10.60;;
71176;SDS011;58877;51.992;4.504;2023-02-12T07:09:29;10.96;;;10.89;;
71176;SDS011;58877;51.992;4.504;2023-02-12T07:11:57;11.06;;;11.06;;
71176;SDS011;58877;51.992;4.504;2023-02-12T07:14:23;10.26;;;10.26;;
71176;SDS011;58877;51.992;4.504;2023-02-12T07:16:49;10.52;;;10.52;;
71176;SDS011;58877;51.992;4.504;2023-02-12T07:19:14;11.13;;;11.13;;
71176;SDS011;58877;51.992;4.504;2023-02-12T07:21:42;10.16;;;10.15;;
71176;SDS011;58877;51.992;4.504;2023-02-12T07:24:08;10.40;;;10.38;;
71176;SDS011;58877;51.992;4.504;2023-02-12T07:26:36;9.73;;;9.73;;
71176;SDS011;58877;51.992;4.504;2023-02-12T07:29:02;10.43;;;10.43;;
71176;SDS011;58877;51.992;4.504;2023-02-12T07:31:28;9.56;;;9.56;;
71176;SDS011;58877;51.992;4.504;2023-02-12T07:33:55;9.94;;;9.93;;
71176;SDS011;58877;51.992;4.504;2023-02-12T07:36:24;10.08;;;10.08;;
71176;SDS011;58877;51.992;4.504;2023-02-12T07:38:53;10.51;;;10.51;;
71176;SDS011;58877;51.992;4.504;2023-02-12T07:41:23;9.66;;;9.66;;
71176;SDS011;58877;51.992;4.504;2023-02-12T07:43:57;9.66;;;9.66;;
71176;SDS011;58877;51.992;4.504;2023-02-12T07:46:25;9.58;;;9.57;;
71176;SDS011;58877;51.992;4.504;2023-02-12T07:48:56;9.17;;;9.17;;
71176;SDS011;58877;51.992;4.504;2023-02-12T07:51:24;8.71;;;8.71;;
71176;SDS011;58877;51.992;4.504;2023-02-12T07:53:51;9.09;;;9.09;;
71176;SDS011;58877;51.992;4.504;2023-02-12T07:56:22;9.15;;;9.15;;
71176;SDS011;58877;51.992;4.504;2023-02-12T07:58:50;8.47;;;8.47;;
71176;SDS011;58877;51.992;4.504;2023-02-12T08:01:20;8.74;;;8.74;;
71176;SDS011;58877;51.992;4.504;2023-02-12T08:03:49;8.23;;;8.23;;
71176;SDS011;58877;51.992;4.504;2023-02-12T08:06:19;8.46;;;8.46;;
71176;SDS011;58877;51.992;4.504;2023-02-12T08:08:49;8.64;;;8.64;;
71176;SDS011;58877;51.992;4.504;2023-02-12T08:11:16;8.71;;;8.71;;
71176;SDS011;58877;51.992;4.504;2023-02-12T08:13:43;9.53;;;9.53;;
71176;SDS011;58877;51.992;4.504;2023-02-12T08:16:10;9.36;;;9.36;;
71176;SDS011;58877;51.992;4.504;2023-02-12T08:18:39;8.94;;;8.94;;
71176;SDS011;58877;51.992;4.504;2023-02-12T08:21:06;9.13;;;9.13;;
71176;SDS011;58877;51.992;4.504;2023-02-12T08:23:36;9.70;;;9.70;;
71176;SDS011;58877;51.992;4.504;2023-02-12T08:26:03;9.72;;;9.72;;
71176;SDS011;58877;51.992;4.504;2023-02-12T08:28:30;9.29;;;9.29;;
71176;SDS011;58877;51.992;4.504;2023-02-12T08:31:00;9.53;;;9.53;;
71176;SDS011;58877;51.992;4.504;2023-02-12T08:33:26;9.07;;;9.07;;
71176;SDS011;58877;51.992;4.504;2023-02-12T08:35:59;9.34;;;9.34;;
71176;SDS011;58877;51.992;4.504;2023-02-12T08:38:26;9.40;;;9.40;;
71176;SDS011;58877;51.992;4.504;2023-02-12T08:40:52;8.80;;;8.80;;
71176;SDS011;58877;51.992;4.504;2023-02-12T08:43:17;8.95;;;8.95;;
71176;SDS011;58877;51.992;4.504;2023-02-12T08:45:43;8.76;;;8.76;;
71176;SDS011;58877;51.992;4.504;2023-02-12T08:48:09;8.16;;;8.15;;
71176;SDS011;58877;51.992;4.504;2023-02-12T08:50:34;8.98;;;8.73;;
71176;SDS011;58877;51.992;4.504;2023-02-12T08:52:59;8.68;;;8.68;;
71176;SDS011;58877;51.992;4.504;2023-02-12T08:55:25;8.89;;;8.89;;
71176;SDS011;58877;51.992;4.504;2023-02-12T08:57:52;9.38;;;9.38;;
71176;SDS011;58877;51.992;4.504;2023-02-12T09:00:22;9.31;;;9.31;;
71176;SDS011;58877;51.992;4.504;2023-02-12T09:02:47;9.25;;;9.25;;
71176;SDS011;58877;51.992;4.504;2023-02-12T09:05:13;9.16;;;9.16;;
71176;SDS011;58877;51.992;4.504;2023-02-12T09:07:38;9.36;;;9.36;;
71176;SDS011;58877;51.992;4.504;2023-02-12T09:10:04;9.44;;;9.43;;
71176;SDS011;58877;51.992;4.504;2023-02-12T09:12:30;9.37;;;9.37;;
71176;SDS011;58877;51.992;4.504;2023-02-12T09:14:56;9.32;;;9.32;;
71176;SDS011;58877;51.992;4.504;2023-02-12T09:17:21;9.35;;;9.35;;
71176;SDS011;58877;51.992;4.504;2023-02-12T09:19:51;9.82;;;9.80;;
71176;SDS011;58877;51.992;4.504;2023-02-12T09:22:18;9.67;;;9.61;;
71176;SDS011;58877;51.992;4.504;2023-02-12T09:24:43;9.76;;;9.65;;
71176;SDS011;58877;51.992;4.504;2023-02-12T09:27:09;10.10;;;10.08;;
71176;SDS011;58877;51.992;4.504;2023-02-12T09:29:34;10.13;;;10.10;;
71176;SDS011;58877;51.992;4.504;2023-02-12T09:32:03;10.11;;;10.11;;
71176;SDS011;58877;51.992;4.504;2023-02-12T09:34:33;10.52;;;10.52;;
71176;SDS011;58877;51.992;4.504;2023-02-12T09:36:59;10.10;;;10.10;;
71176;SDS011;58877;51.992;4.504;2023-02-12T09:39:26;9.90;;;9.90;;
71176;SDS011;58877;51.992;4.504;2023-02-12T09:44:38;10.69;;;10.68;;
71176;SDS011;58877;51.992;4.504;2023-02-12T09:47:12;10.33;;;10.30;;
71176;SDS011;58877;51.992;4.504;2023-02-12T09:49:55;10.96;;;10.92;;
71176;SDS011;58877;51.992;4.504;2023-02-12T09:52:53;10.23;;;10.23;;
71176;SDS011;58877;51.992;4.504;2023-02-12T09:55:24;10.58;;;10.58;;
71176;SDS011;58877;51.992;4.504;2023-02-12T09:57:54;10.34;;;10.30;;
71176;SDS011;58877;51.992;4.504;2023-02-12T10:00:21;10.70;;;10.70;;
71176;SDS011;58877;51.992;4.504;2023-02-12T10:02:52;11.09;;;11.09;;
71176;SDS011;58877;51.992;4.504;2023-02-12T10:05:22;10.92;;;10.91;;
71176;SDS011;58877;51.992;4.504;2023-02-12T10:08:30;10.04;;;10.01;;
71176;SDS011;58877;51.992;4.504;2023-02-12T10:11:21;10.32;;;10.32;;
71176;SDS011;58877;51.992;4.504;2023-02-12T10:17:12;10.10;;;10.04;;
71176;SDS011;58877;51.992;4.504;2023-02-12T10:22:34;10.24;;;10.24;;
71176;SDS011;58877;51.992;4.504;2023-02-12T10:25:12;10.53;;;10.53;;
71176;SDS011;58877;51.992;4.504;2023-02-12T10:28:10;10.68;;;10.67;;
71176;SDS011;58877;51.992;4.504;2023-02-12T10:33:23;10.54;;;10.51;;
71176;SDS011;58877;51.992;4.504;2023-02-12T10:36:01;9.90;;;9.90;;
71176;SDS011;58877;51.992;4.504;2023-02-12T10:38:41;10.38;;;10.38;;
71176;SDS011;58877;51.992;4.504;2023-02-12T10:41:13;10.27;;;10.23;;
71176;SDS011;58877;51.992;4.504;2023-02-12T10:43:40;10.60;;;10.60;;
71176;SDS011;58877;51.992;4.504;2023-02-12T10:46:09;10.17;;;10.17;;
71176;SDS011;58877;51.992;4.504;2023-02-12T10:48:39;10.73;;;10.73;;
71176;SDS011;58877;51.992;4.504;2023-02-12T10:51:19;10.88;;;10.88;;
71176;SDS011;58877;51.992;4.504;2023-02-12T10:56:59;10.74;;;10.68;;
71176;SDS011;58877;51.992;4.504;2023-02-12T10:59:34;10.84;;;10.75;;
71176;SDS011;58877;51.992;4.504;2023-02-12T11:02:00;11.40;;;11.31;;
71176;SDS011;58877;51.992;4.504;2023-02-12T11:04:26;11.23;;;11.21;;
71176;SDS011;58877;51.992;4.504;2023-02-12T11:06:58;11.34;;;11.32;;
71176;SDS011;58877;51.992;4.504;2023-02-12T11:11:59;11.30;;;11.28;;
71176;SDS011;58877;51.992;4.504;2023-02-12T11:14:25;11.57;;;11.57;;
71176;SDS011;58877;51.992;4.504;2023-02-12T11:16:55;11.62;;;11.62;;
71176;SDS011;58877;51.992;4.504;2023-02-12T11:19:26;11.92;;;11.87;;
71176;SDS011;58877;51.992;4.504;2023-02-12T11:22:09;11.50;;;11.41;;
71176;SDS011;58877;51.992;4.504;2023-02-12T11:24:42;12.14;;;12.05;;
71176;SDS011;58877;51.992;4.504;2023-02-12T11:27:23;10.56;;;10.51;;
71176;SDS011;58877;51.992;4.504;2023-02-12T11:32:45;9.88;;;9.83;;
71176;SDS011;58877;51.992;4.504;2023-02-12T11:35:17;10.14;;;10.14;;
71176;SDS011;58877;51.992;4.504;2023-02-12T11:37:56;9.99;;;9.99;;
71176;SDS011;58877;51.992;4.504;2023-02-12T11:40:32;9.95;;;9.95;;
71176;SDS011;58877;51.992;4.504;2023-02-12T11:43:02;10.36;;;10.36;;
71176;SDS011;58877;51.992;4.504;2023-02-12T11:45:41;9.92;;;9.92;;
71176;SDS011;58877;51.992;4.504;2023-02-12T11:48:15;11.01;;;10.91;;
71176;SDS011;58877;51.992;4.504;2023-02-12T11:50:45;11.13;;;11.09;;
71176;SDS011;58877;51.992;4.504;2023-02-12T11:53:18;10.64;;;10.62;;
71176;SDS011;58877;51.992;4.504;2023-02-12T11:55:58;11.56;;;11.42;;
71176;SDS011;58877;51.992;4.504;2023-02-12T11:58:45;11.42;;;11.25;;
71176;SDS011;58877;51.992;4.504;2023-02-12T12:08:52;9.84;;;9.72;;
71176;SDS011;58877;51.992;4.504;2023-02-12T12:11:40;10.81;;;10.67;;
71176;SDS011;58877;51.992;4.504;2023-02-12T12:14:24;9.44;;;9.36;;
71176;SDS011;58877;51.992;4.504;2023-02-12T12:17:03;8.46;;;8.37;;
71176;SDS011;58877;51.992;4.504;2023-02-12T12:20:09;8.09;;;7.98;;
71176;SDS011;58877;51.992;4.504;2023-02-12T12:31:26;7.30;;;7.28;;
71176;SDS011;58877;51.992;4.504;2023-02-12T12:34:16;7.18;;;7.17;;
71176;SDS011;58877;51.992;4.504;2023-02-12T12:39:27;7.19;;;7.18;;
71176;SDS011;58877;51.992;4.504;2023-02-12T12:56:12;7.32;;;7.30;;
71176;SDS011;58877;51.992;4.504;2023-02-12T12:59:07;7.81;;;7.80;;
71176;SDS011;58877;51.992;4.504;2023-02-12T13:01:57;8.21;;;8.20;;
71176;SDS011;58877;51.992;4.504;2023-02-12T13:15:59;9.24;;;9.17;;
71176;SDS011;58877;51.992;4.504;2023-02-12T13:18:49;10.03;;;10.03;;
71176;SDS011;58877;51.992;4.504;2023-02-12T13:21:39;9.63;;;9.63;;
71176;SDS011;58877;51.992;4.504;2023-02-12T13:24:46;10.28;;;10.27;;
71176;SDS011;58877;51.992;4.504;2023-02-12T13:27:29;10.25;;;10.14;;
71176;SDS011;58877;51.992;4.504;2023-02-12T13:32:29;10.16;;;10.02;;
71176;SDS011;58877;51.992;4.504;2023-02-12T13:34:58;9.98;;;9.93;;
71176;SDS011;58877;51.992;4.504;2023-02-12T13:37:40;10.49;;;10.45;;
71176;SDS011;58877;51.992;4.504;2023-02-12T13:40:14;10.03;;;10.00;;
71176;SDS011;58877;51.992;4.504;2023-02-12T13:53:24;10.46;;;10.39;;
71176;SDS011;58877;51.992;4.504;2023-02-12T13:58:47;11.66;;;11.56;;
71176;SDS011;58877;51.992;4.504;2023-02-12T14:12:08;9.70;;;9.69;;
71176;SDS011;58877;51.992;4.504;2023-02-12T14:14:38;9.88;;;9.74;;
71176;SDS011;58877;51.992;4.504;2023-02-12T14:20:04;9.54;;;9.39;;
71176;SDS011;58877;51.992;4.504;2023-02-12T14:25:31;9.79;;;9.74;;
71176;SDS011;58877;51.992;4.504;2023-02-12T14:28:11;9.66;;;9.63;;
71176;SDS011;58877;51.992;4.504;2023-02-12T14:30:42;10.70;;;10.61;;
71176;SDS011;58877;51.992;4.504;2023-02-12T14:33:10;10.42;;;10.39;;
71176;SDS011;58877;51.992;4.504;2023-02-12T14:35:44;11.48;;;11.28;;
71176;SDS011;58877;51.992;4.504;2023-02-12T14:40:46;11.04;;;11.03;;
71176;SDS011;58877;51.992;4.504;2023-02-12T14:43:32;11.16;;;11.11;;
71176;SDS011;58877;51.992;4.504;2023-02-12T15:00:18;10.79;;;10.62;;
71176;SDS011;58877;51.992;4.504;2023-02-12T15:03:00;11.07;;;10.89;;
71176;SDS011;58877;51.992;4.504;2023-02-12T15:10:51;13.06;;;12.80;;
71176;SDS011;58877;51.992;4.504;2023-02-12T15:13:42;13.03;;;12.91;;
71176;SDS011;58877;51.992;4.504;2023-02-12T15:16:18;13.95;;;13.81;;
71176;SDS011;58877;51.992;4.504;2023-02-12T15:21:30;13.90;;;13.79;;
71176;SDS011;58877;51.992;4.504;2023-02-12T15:26:40;15.23;;;15.01;;
71176;SDS011;58877;51.992;4.504;2023-02-12T15:32:01;15.30;;;15.18;;
71176;SDS011;58877;51.992;4.504;2023-02-12T15:34:30;16.52;;;16.35;;
71176;SDS011;58877;51.992;4.504;2023-02-12T15:37:02;16.56;;;16.33;;
71176;SDS011;58877;51.992;4.504;2023-02-12T15:39:36;17.10;;;16.96;;
71176;SDS011;58877;51.992;4.504;2023-02-12T15:45:00;17.36;;;17.06;;
71176;SDS011;58877;51.992;4.504;2023-02-12T15:47:42;17.73;;;17.42;;
71176;SDS011;58877;51.992;4.504;2023-02-12T15:50:15;17.52;;;17.08;;
71176;SDS011;58877;51.992;4.504;2023-02-12T15:52:42;18.15;;;17.77;;
71176;SDS011;58877;51.992;4.504;2023-02-12T15:55:13;18.74;;;18.45;;
71176;SDS011;58877;51.992;4.504;2023-02-12T15:57:43;19.75;;;19.42;;
71176;SDS011;58877;51.992;4.504;2023-02-12T16:00:58;19.57;;;19.30;;
71176;SDS011;58877;51.992;4.504;2023-02-12T16:05:50;18.83;;;18.65;;
71176;SDS011;58877;51.992;4.504;2023-02-12T16:08:20;19.19;;;18.83;;
71176;SDS011;58877;51.992;4.504;2023-02-12T16:10:48;19.62;;;19.22;;
71176;SDS011;58877;51.992;4.504;2023-02-12T16:13:30;19.07;;;18.83;;
71176;SDS011;58877;51.992;4.504;2023-02-12T16:16:23;18.89;;;18.57;;
71176;SDS011;58877;51.992;4.504;2023-02-12T16:19:06;18.53;;;18.30;;
71176;SDS011;58877;51.992;4.504;2023-02-12T16:21:54;19.01;;;18.72;;
71176;SDS011;58877;51.992;4.504;2023-02-12T16:24:45;18.92;;;18.49;;
71176;SDS011;58877;51.992;4.504;2023-02-12T16:27:19;19.83;;;19.42;;
71176;SDS011;58877;51.992;4.504;2023-02-12T16:29:49;18.72;;;18.31;;
71176;SDS011;58877;51.992;4.504;2023-02-12T16:37:42;17.42;;;17.21;;
71176;SDS011;58877;51.992;4.504;2023-02-12T16:47:50;19.89;;;19.63;;
71176;SDS011;58877;51.992;4.504;2023-02-12T16:50:25;20.38;;;20.24;;
71176;SDS011;58877;51.992;4.504;2023-02-12T16:53:40;19.57;;;19.25;;
71176;SDS011;58877;51.992;4.504;2023-02-12T16:55:55;19.94;;;19.55;;
71176;SDS011;58877;51.992;4.504;2023-02-12T16:58:23;18.55;;;18.32;;
71176;SDS011;58877;51.992;4.504;2023-02-12T17:00:50;18.55;;;18.36;;
71176;SDS011;58877;51.992;4.504;2023-02-12T17:03:17;17.32;;;17.05;;
71176;SDS011;58877;51.992;4.504;2023-02-12T17:05:43;17.70;;;17.42;;
71176;SDS011;58877;51.992;4.504;2023-02-12T17:08:12;18.59;;;18.29;;
71176;SDS011;58877;51.992;4.504;2023-02-12T17:10:47;18.20;;;17.95;;
71176;SDS011;58877;51.992;4.504;2023-02-12T17:13:19;18.22;;;17.82;;
71176;SDS011;58877;51.992;4.504;2023-02-12T17:18:18;18.79;;;18.49;;
71176;SDS011;58877;51.992;4.504;2023-02-12T17:20:55;20.02;;;19.54;;
71176;SDS011;58877;51.992;4.504;2023-02-12T17:23:34;20.84;;;20.50;;
71176;SDS011;58877;51.992;4.504;2023-02-12T17:26:00;20.93;;;20.81;;
71176;SDS011;58877;51.992;4.504;2023-02-12T17:28:35;21.34;;;21.13;;
71176;SDS011;58877;51.992;4.504;2023-02-12T17:31:04;21.44;;;21.15;;
71176;SDS011;58877;51.992;4.504;2023-02-12T17:33:38;21.49;;;21.22;;
71176;SDS011;58877;51.992;4.504;2023-02-12T17:36:04;21.64;;;21.24;;
71176;SDS011;58877;51.992;4.504;2023-02-12T17:38:30;20.15;;;19.95;;
71176;SDS011;58877;51.992;4.504;2023-02-12T17:40:59;20.88;;;20.57;;
71176;SDS011;58877;51.992;4.504;2023-02-12T17:43:33;24.49;;;24.00;;
71176;SDS011;58877;51.992;4.504;2023-02-12T17:45:58;22.21;;;21.81;;
71176;SDS011;58877;51.992;4.504;2023-02-12T17:48:28;22.00;;;21.50;;
71176;SDS011;58877;51.992;4.504;2023-02-12T17:50:54;22.01;;;21.73;;
71176;SDS011;58877;51.992;4.504;2023-02-12T17:53:25;20.95;;;20.69;;
71176;SDS011;58877;51.992;4.504;2023-02-12T17:55:51;20.31;;;19.94;;
71176;SDS011;58877;51.992;4.504;2023-02-12T17:58:24;20.99;;;20.38;;
71176;SDS011;58877;51.992;4.504;2023-02-12T18:00:50;21.35;;;20.93;;
71176;SDS011;58877;51.992;4.504;2023-02-12T18:03:16;20.48;;;20.17;;
71176;SDS011;58877;51.992;4.504;2023-02-12T18:05:41;20.91;;;20.50;;
71176;SDS011;58877;51.992;4.504;2023-02-12T18:08:08;19.99;;;19.73;;
71176;SDS011;58877;51.992;4.504;2023-02-12T18:10:43;20.39;;;20.11;;
71176;SDS011;58877;51.992;4.504;2023-02-12T18:13:12;20.08;;;19.64;;
71176;SDS011;58877;51.992;4.504;2023-02-12T18:15:41;18.26;;;18.02;;